sensor_id;sensor_type;location;lat;lon;timestamp;temperature;humidity
17348;DHT22;8791;50.876;4.342;2023-12-07T00:00:12;4.10;99.90
17348;DHT22;8791;50.876;4.342;2023-12-07T00:02:41;4.10;99.90
17348;DHT22;8791;50.876;4.342;2023-12-07T00:05:11;4.10;99.90
17348;DHT22;8791;50.876;4.342;2023-12-07T00:07:44;4.10;99.90
17348;DHT22;8791;50.876;4.342;2023-12-07T00:10:10;4.20;99.90
17348;DHT22;8791;50.876;4.342;2023-12-07T00:12:37;4.40;99.90
17348;DHT22;8791;50.876;4.342;2023-12-07T00:15:06;4.30;99.90
17348;DHT22;8791;50.876;4.342;2023-12-07T00:17:33;4.20;99.90
17348;DHT22;8791;50.876;4.342;2023-12-07T00:20:00;4.10;99.90
17348;DHT22;8791;50.876;4.342;2023-12-07T00:22:30;4.00;99.90
17348;DHT22;8791;50.876;4.342;2023-12-07T00:24:57;4.00;99.90
17348;DHT22;8791;50.876;4.342;2023-12-07T00:27:24;3.90;99.90
17348;DHT22;8791;50.876;4.342;2023-12-07T00:29:51;3.90;99.90
17348;DHT22;8791;50.876;4.342;2023-12-07T00:32:18;4.00;99.90
17348;DHT22;8791;50.876;4.342;2023-12-07T00:34:45;4.10;99.90
17348;DHT22;8791;50.876;4.342;2023-12-07T00:37:11;4.20;99.90
17348;DHT22;8791;50.876;4.342;2023-12-07T00:39:42;4.30;99.90
17348;DHT22;8791;50.876;4.342;2023-12-07T00:42:09;4.40;99.90
17348;DHT22;8791;50.876;4.342;2023-12-07T00:44:39;4.40;99.90
17348;DHT22;8791;50.876;4.342;2023-12-07T00:47:06;4.20;99.90
17348;DHT22;8791;50.876;4.342;2023-12-07T00:49:33;4.20;99.90
17348;DHT22;8791;50.876;4.342;2023-12-07T00:52:00;4.10;99.90
17348;DHT22;8791;50.876;4.342;2023-12-07T00:54:28;4.20;99.90
17348;DHT22;8791;50.876;4.342;2023-12-07T00:56:56;4.10;99.90
17348;DHT22;8791;50.876;4.342;2023-12-07T00:59:23;4.10;99.90
17348;DHT22;8791;50.876;4.342;2023-12-07T01:01:50;4.20;99.90
17348;DHT22;8791;50.876;4.342;2023-12-07T01:04:17;4.30;99.90
17348;DHT22;8791;50.876;4.342;2023-12-07T01:06:44;4.20;99.90
17348;DHT22;8791;50.876;4.342;2023-12-07T01:09:11;4.40;99.90
17348;DHT22;8791;50.876;4.342;2023-12-07T01:11:39;4.50;99.90
17348;DHT22;8791;50.876;4.342;2023-12-07T01:14:07;4.30;99.90
17348;DHT22;8791;50.876;4.342;2023-12-07T01:16:34;4.30;99.90
17348;DHT22;8791;50.876;4.342;2023-12-07T01:19:01;4.30;99.90
17348;DHT22;8791;50.876;4.342;2023-12-07T01:21:28;4.40;99.90
17348;DHT22;8791;50.876;4.342;2023-12-07T01:23:56;4.30;99.90
17348;DHT22;8791;50.876;4.342;2023-12-07T01:26:23;4.30;99.90
17348;DHT22;8791;50.876;4.342;2023-12-07T01:28:50;4.50;99.90
17348;DHT22;8791;50.876;4.342;2023-12-07T01:31:19;4.40;99.90
17348;DHT22;8791;50.876;4.342;2023-12-07T01:33:46;4.50;99.90
17348;DHT22;8791;50.876;4.342;2023-12-07T01:36:12;4.40;99.90
17348;DHT22;8791;50.876;4.342;2023-12-07T01:38:39;4.50;99.90
17348;DHT22;8791;50.876;4.342;2023-12-07T01:41:06;4.30;99.90
17348;DHT22;8791;50.876;4.342;2023-12-07T01:43:34;4.30;99.90
17348;DHT22;8791;50.876;4.342;2023-12-07T01:46:01;4.20;99.90
17348;DHT22;8791;50.876;4.342;2023-12-07T01:48:30;4.20;99.90
17348;DHT22;8791;50.876;4.342;2023-12-07T01:50:58;4.30;99.90
17348;DHT22;8791;50.876;4.342;2023-12-07T01:53:27;4.20;99.90
17348;DHT22;8791;50.876;4.342;2023-12-07T01:55:55;4.40;99.90
17348;DHT22;8791;50.876;4.342;2023-12-07T01:58:22;4.50;99.90
17348;DHT22;8791;50.876;4.342;2023-12-07T02:00:49;4.50;99.90
17348;DHT22;8791;50.876;4.342;2023-12-07T02:03:17;4.30;99.90
17348;DHT22;8791;50.876;4.342;2023-12-07T02:05:47;4.30;99.90
17348;DHT22;8791;50.876;4.342;2023-12-07T02:08:15;4.40;99.90
17348;DHT22;8791;50.876;4.342;2023-12-07T02:10:42;4.20;99.90
17348;DHT22;8791;50.876;4.342;2023-12-07T02:13:09;4.00;99.90
17348;DHT22;8791;50.876;4.342;2023-12-07T02:15:36;4.00;99.90
17348;DHT22;8791;50.876;4.342;2023-12-07T02:18:14;4.10;99.90
17348;DHT22;8791;50.876;4.342;2023-12-07T02:20:47;4.20;99.90
17348;DHT22;8791;50.876;4.342;2023-12-07T02:23:18;4.30;99.90
17348;DHT22;8791;50.876;4.342;2023-12-07T02:26:03;4.30;99.90
17348;DHT22;8791;50.876;4.342;2023-12-07T02:28:31;4.30;99.90
17348;DHT22;8791;50.876;4.342;2023-12-07T02:30:58;4.30;99.90
17348;DHT22;8791;50.876;4.342;2023-12-07T02:33:25;4.60;99.90
17348;DHT22;8791;50.876;4.342;2023-12-07T02:35:52;4.50;99.90
17348;DHT22;8791;50.876;4.342;2023-12-07T02:38:22;4.40;99.90
17348;DHT22;8791;50.876;4.342;2023-12-07T02:40:53;4.40;99.90
17348;DHT22;8791;50.876;4.342;2023-12-07T02:43:21;4.30;99.90
17348;DHT22;8791;50.876;4.342;2023-12-07T02:45:50;4.20;99.90
17348;DHT22;8791;50.876;4.342;2023-12-07T02:48:17;4.30;99.90
17348;DHT22;8791;50.876;4.342;2023-12-07T02:50:44;4.30;99.90
17348;DHT22;8791;50.876;4.342;2023-12-07T02:53:11;4.50;99.90
17348;DHT22;8791;50.876;4.342;2023-12-07T02:55:38;4.40;99.90
17348;DHT22;8791;50.876;4.342;2023-12-07T02:58:04;4.20;99.90
17348;DHT22;8791;50.876;4.342;2023-12-07T03:00:32;4.00;99.90
17348;DHT22;8791;50.876;4.342;2023-12-07T03:03:00;4.10;99.90
17348;DHT22;8791;50.876;4.342;2023-12-07T03:05:27;4.10;99.90
17348;DHT22;8791;50.876;4.342;2023-12-07T03:07:54;4.10;99.90
17348;DHT22;8791;50.876;4.342;2023-12-07T03:10:21;4.30;99.90
17348;DHT22;8791;50.876;4.342;2023-12-07T03:12:48;4.50;99.90
17348;DHT22;8791;50.876;4.342;2023-12-07T03:15:15;4.50;99.90
17348;DHT22;8791;50.876;4.342;2023-12-07T03:17:42;4.40;99.90
17348;DHT22;8791;50.876;4.342;2023-12-07T03:20:11;4.40;99.90
17348;DHT22;8791;50.876;4.342;2023-12-07T03:22:38;4.30;99.90
17348;DHT22;8791;50.876;4.342;2023-12-07T03:25:05;4.50;99.90
17348;DHT22;8791;50.876;4.342;2023-12-07T03:27:33;4.50;99.90
17348;DHT22;8791;50.876;4.342;2023-12-07T03:30:00;4.60;99.90
17348;DHT22;8791;50.876;4.342;2023-12-07T03:32:27;4.50;99.90
17348;DHT22;8791;50.876;4.342;2023-12-07T03:34:53;4.50;99.90
17348;DHT22;8791;50.876;4.342;2023-12-07T03:37:22;4.40;99.90
17348;DHT22;8791;50.876;4.342;2023-12-07T03:39:49;4.80;99.90
17348;DHT22;8791;50.876;4.342;2023-12-07T03:42:16;4.60;99.90
17348;DHT22;8791;50.876;4.342;2023-12-07T03:44:43;4.60;99.90
17348;DHT22;8791;50.876;4.342;2023-12-07T03:47:11;4.50;99.90
17348;DHT22;8791;50.876;4.342;2023-12-07T03:49:38;4.40;99.90
17348;DHT22;8791;50.876;4.342;2023-12-07T03:52:07;4.40;99.90
17348;DHT22;8791;50.876;4.342;2023-12-07T03:54:35;4.40;99.90
17348;DHT22;8791;50.876;4.342;2023-12-07T03:57:03;4.50;99.90
17348;DHT22;8791;50.876;4.342;2023-12-07T03:59:32;4.40;99.90
17348;DHT22;8791;50.876;4.342;2023-12-07T04:02:02;4.50;99.90
17348;DHT22;8791;50.876;4.342;2023-12-07T04:04:29;4.60;99.90
17348;DHT22;8791;50.876;4.342;2023-12-07T04:06:56;4.50;99.90
17348;DHT22;8791;50.876;4.342;2023-12-07T04:09:23;4.60;99.90
17348;DHT22;8791;50.876;4.342;2023-12-07T04:11:51;4.50;99.90
17348;DHT22;8791;50.876;4.342;2023-12-07T04:14:18;4.40;99.90
17348;DHT22;8791;50.876;4.342;2023-12-07T04:16:45;4.60;99.90
17348;DHT22;8791;50.876;4.342;2023-12-07T04:19:12;4.70;99.90
17348;DHT22;8791;50.876;4.342;2023-12-07T04:21:39;4.60;99.90
17348;DHT22;8791;50.876;4.342;2023-12-07T04:24:06;4.50;99.90
17348;DHT22;8791;50.876;4.342;2023-12-07T04:26:34;4.70;99.90
17348;DHT22;8791;50.876;4.342;2023-12-07T04:29:02;4.70;99.90
17348;DHT22;8791;50.876;4.342;2023-12-07T04:31:29;4.80;99.90
17348;DHT22;8791;50.876;4.342;2023-12-07T04:33:56;4.70;99.90
17348;DHT22;8791;50.876;4.342;2023-12-07T04:36:23;4.60;99.90
17348;DHT22;8791;50.876;4.342;2023-12-07T04:38:50;4.40;99.90
17348;DHT22;8791;50.876;4.342;2023-12-07T04:41:17;4.50;99.90
17348;DHT22;8791;50.876;4.342;2023-12-07T04:43:44;4.50;99.90
17348;DHT22;8791;50.876;4.342;2023-12-07T04:46:12;4.20;99.90
17348;DHT22;8791;50.876;4.342;2023-12-07T04:48:40;4.00;99.90
17348;DHT22;8791;50.876;4.342;2023-12-07T04:51:08;3.90;99.90
17348;DHT22;8791;50.876;4.342;2023-12-07T04:53:34;3.80;99.90
17348;DHT22;8791;50.876;4.342;2023-12-07T04:56:01;3.80;99.90
17348;DHT22;8791;50.876;4.342;2023-12-07T04:58:28;3.90;99.90
17348;DHT22;8791;50.876;4.342;2023-12-07T05:00:55;4.00;99.90
17348;DHT22;8791;50.876;4.342;2023-12-07T05:03:24;4.00;99.90
17348;DHT22;8791;50.876;4.342;2023-12-07T05:05:50;4.00;99.90
17348;DHT22;8791;50.876;4.342;2023-12-07T05:08:17;4.00;99.90
17348;DHT22;8791;50.876;4.342;2023-12-07T05:10:44;4.00;99.90
17348;DHT22;8791;50.876;4.342;2023-12-07T05:13:11;4.00;99.90
17348;DHT22;8791;50.876;4.342;2023-12-07T05:15:39;4.00;99.90
17348;DHT22;8791;50.876;4.342;2023-12-07T05:18:06;4.10;99.90
17348;DHT22;8791;50.876;4.342;2023-12-07T05:20:34;3.90;99.90
17348;DHT22;8791;50.876;4.342;2023-12-07T05:23:04;3.70;99.90
17348;DHT22;8791;50.876;4.342;2023-12-07T05:25:31;3.50;99.90
17348;DHT22;8791;50.876;4.342;2023-12-07T05:27:59;3.50;99.90
17348;DHT22;8791;50.876;4.342;2023-12-07T05:30:25;3.50;99.90
17348;DHT22;8791;50.876;4.342;2023-12-07T05:32:53;3.60;99.90
17348;DHT22;8791;50.876;4.342;2023-12-07T05:35:20;3.50;99.90
17348;DHT22;8791;50.876;4.342;2023-12-07T05:37:50;3.60;99.90
17348;DHT22;8791;50.876;4.342;2023-12-07T05:40:17;3.70;99.90
17348;DHT22;8791;50.876;4.342;2023-12-07T05:42:44;3.80;99.90
17348;DHT22;8791;50.876;4.342;2023-12-07T05:45:11;3.80;99.90
17348;DHT22;8791;50.876;4.342;2023-12-07T05:47:38;3.60;99.90
17348;DHT22;8791;50.876;4.342;2023-12-07T05:50:06;3.50;99.90
17348;DHT22;8791;50.876;4.342;2023-12-07T05:52:34;3.40;99.90
17348;DHT22;8791;50.876;4.342;2023-12-07T05:55:03;3.30;99.90
17348;DHT22;8791;50.876;4.342;2023-12-07T05:57:31;3.30;99.90
17348;DHT22;8791;50.876;4.342;2023-12-07T05:59:58;3.30;99.90
17348;DHT22;8791;50.876;4.342;2023-12-07T06:02:25;3.40;99.90
17348;DHT22;8791;50.876;4.342;2023-12-07T06:04:53;3.40;99.90
17348;DHT22;8791;50.876;4.342;2023-12-07T06:07:20;3.40;99.90
17348;DHT22;8791;50.876;4.342;2023-12-07T06:09:47;3.40;99.90
17348;DHT22;8791;50.876;4.342;2023-12-07T06:12:15;3.50;99.90
17348;DHT22;8791;50.876;4.342;2023-12-07T06:14:42;3.50;99.90
17348;DHT22;8791;50.876;4.342;2023-12-07T06:17:09;3.50;99.90
17348;DHT22;8791;50.876;4.342;2023-12-07T06:19:36;3.40;99.90
17348;DHT22;8791;50.876;4.342;2023-12-07T06:22:03;3.50;99.90
17348;DHT22;8791;50.876;4.342;2023-12-07T06:24:31;3.50;99.90
17348;DHT22;8791;50.876;4.342;2023-12-07T06:26:58;3.50;99.90
17348;DHT22;8791;50.876;4.342;2023-12-07T06:29:26;3.60;99.90
17348;DHT22;8791;50.876;4.342;2023-12-07T06:31:54;3.50;99.90
17348;DHT22;8791;50.876;4.342;2023-12-07T06:34:21;3.60;99.90
17348;DHT22;8791;50.876;4.342;2023-12-07T06:36:48;3.60;99.90
17348;DHT22;8791;50.876;4.342;2023-12-07T06:39:15;3.60;99.90
17348;DHT22;8791;50.876;4.342;2023-12-07T06:41:42;3.60;99.90
17348;DHT22;8791;50.876;4.342;2023-12-07T06:44:09;3.70;99.90
17348;DHT22;8791;50.876;4.342;2023-12-07T06:46:36;3.80;99.90
17348;DHT22;8791;50.876;4.342;2023-12-07T06:49:05;3.90;99.90
17348;DHT22;8791;50.876;4.342;2023-12-07T06:51:32;3.90;99.90
17348;DHT22;8791;50.876;4.342;2023-12-07T06:53:59;4.00;99.90
17348;DHT22;8791;50.876;4.342;2023-12-07T06:56:27;4.10;99.90
17348;DHT22;8791;50.876;4.342;2023-12-07T06:58:54;4.00;99.90
17348;DHT22;8791;50.876;4.342;2023-12-07T07:01:21;4.00;99.90
17348;DHT22;8791;50.876;4.342;2023-12-07T07:03:50;4.10;99.90
17348;DHT22;8791;50.876;4.342;2023-12-07T07:06:17;4.00;99.90
17348;DHT22;8791;50.876;4.342;2023-12-07T07:08:47;4.10;99.90
17348;DHT22;8791;50.876;4.342;2023-12-07T07:11:14;4.10;99.90
17348;DHT22;8791;50.876;4.342;2023-12-07T07:13:42;4.10;99.90
17348;DHT22;8791;50.876;4.342;2023-12-07T07:16:09;4.00;99.90
17348;DHT22;8791;50.876;4.342;2023-12-07T07:18:37;4.00;99.90
17348;DHT22;8791;50.876;4.342;2023-12-07T07:21:06;3.90;99.90
17348;DHT22;8791;50.876;4.342;2023-12-07T07:23:34;3.90;99.90
17348;DHT22;8791;50.876;4.342;2023-12-07T07:26:02;3.90;99.90
17348;DHT22;8791;50.876;4.342;2023-12-07T07:28:30;4.00;99.90
17348;DHT22;8791;50.876;4.342;2023-12-07T07:30:57;4.00;99.90
17348;DHT22;8791;50.876;4.342;2023-12-07T07:33:25;4.20;99.90
17348;DHT22;8791;50.876;4.342;2023-12-07T07:35:52;4.10;99.90
17348;DHT22;8791;50.876;4.342;2023-12-07T07:38:20;4.00;99.90
17348;DHT22;8791;50.876;4.342;2023-12-07T07:40:48;4.00;99.90
17348;DHT22;8791;50.876;4.342;2023-12-07T07:43:15;3.90;99.90
17348;DHT22;8791;50.876;4.342;2023-12-07T07:45:43;3.90;99.90
17348;DHT22;8791;50.876;4.342;2023-12-07T07:48:11;3.90;99.90
17348;DHT22;8791;50.876;4.342;2023-12-07T07:50:38;4.00;99.90
17348;DHT22;8791;50.876;4.342;2023-12-07T07:53:05;4.10;99.90
17348;DHT22;8791;50.876;4.342;2023-12-07T07:55:34;4.10;99.90
17348;DHT22;8791;50.876;4.342;2023-12-07T07:58:01;4.00;99.90
17348;DHT22;8791;50.876;4.342;2023-12-07T08:00:28;4.00;99.90
17348;DHT22;8791;50.876;4.342;2023-12-07T08:02:56;3.90;99.90
17348;DHT22;8791;50.876;4.342;2023-12-07T08:05:23;3.80;99.90
17348;DHT22;8791;50.876;4.342;2023-12-07T08:07:50;3.80;99.90
17348;DHT22;8791;50.876;4.342;2023-12-07T08:10:17;3.90;99.90
17348;DHT22;8791;50.876;4.342;2023-12-07T08:12:46;3.90;99.90
17348;DHT22;8791;50.876;4.342;2023-12-07T08:15:13;3.90;99.90
17348;DHT22;8791;50.876;4.342;2023-12-07T08:17:40;4.00;99.90
17348;DHT22;8791;50.876;4.342;2023-12-07T08:20:08;4.00;99.90
17348;DHT22;8791;50.876;4.342;2023-12-07T08:22:36;4.10;99.90
17348;DHT22;8791;50.876;4.342;2023-12-07T08:25:04;4.10;99.90
17348;DHT22;8791;50.876;4.342;2023-12-07T08:27:32;4.00;99.90
17348;DHT22;8791;50.876;4.342;2023-12-07T08:30:00;3.90;99.90
17348;DHT22;8791;50.876;4.342;2023-12-07T08:32:28;4.00;99.90
17348;DHT22;8791;50.876;4.342;2023-12-07T08:34:55;4.00;99.90
17348;DHT22;8791;50.876;4.342;2023-12-07T08:37:22;4.10;99.90
17348;DHT22;8791;50.876;4.342;2023-12-07T08:39:49;4.30;99.90
17348;DHT22;8791;50.876;4.342;2023-12-07T08:42:15;4.40;99.90
17348;DHT22;8791;50.876;4.342;2023-12-07T08:44:43;4.40;99.90
17348;DHT22;8791;50.876;4.342;2023-12-07T08:47:11;4.40;99.90
17348;DHT22;8791;50.876;4.342;2023-12-07T08:49:38;4.40;99.90
17348;DHT22;8791;50.876;4.342;2023-12-07T08:52:05;4.30;99.90
17348;DHT22;8791;50.876;4.342;2023-12-07T08:54:32;4.20;99.90
17348;DHT22;8791;50.876;4.342;2023-12-07T08:57:01;4.30;99.90
17348;DHT22;8791;50.876;4.342;2023-12-07T08:59:28;4.30;99.90
17348;DHT22;8791;50.876;4.342;2023-12-07T09:01:55;4.30;99.90
17348;DHT22;8791;50.876;4.342;2023-12-07T09:04:24;4.30;99.90
17348;DHT22;8791;50.876;4.342;2023-12-07T09:06:51;4.30;99.90
17348;DHT22;8791;50.876;4.342;2023-12-07T09:09:18;4.40;99.90
17348;DHT22;8791;50.876;4.342;2023-12-07T09:11:46;4.40;99.90
17348;DHT22;8791;50.876;4.342;2023-12-07T09:14:13;4.40;99.90
17348;DHT22;8791;50.876;4.342;2023-12-07T09:16:43;4.40;99.90
17348;DHT22;8791;50.876;4.342;2023-12-07T09:19:11;4.40;99.90
17348;DHT22;8791;50.876;4.342;2023-12-07T09:21:40;4.50;99.90
17348;DHT22;8791;50.876;4.342;2023-12-07T09:24:07;4.50;99.90
17348;DHT22;8791;50.876;4.342;2023-12-07T09:26:35;4.50;99.90
17348;DHT22;8791;50.876;4.342;2023-12-07T09:29:02;4.30;99.90
17348;DHT22;8791;50.876;4.342;2023-12-07T09:31:29;4.40;99.90
17348;DHT22;8791;50.876;4.342;2023-12-07T09:33:56;4.50;99.90
17348;DHT22;8791;50.876;4.342;2023-12-07T09:36:23;4.50;99.90
17348;DHT22;8791;50.876;4.342;2023-12-07T09:38:51;4.60;99.90
17348;DHT22;8791;50.876;4.342;2023-12-07T09:41:19;4.70;99.90
17348;DHT22;8791;50.876;4.342;2023-12-07T09:43:47;4.70;99.90
17348;DHT22;8791;50.876;4.342;2023-12-07T09:46:15;4.60;99.90
17348;DHT22;8791;50.876;4.342;2023-12-07T09:48:43;4.60;99.90
17348;DHT22;8791;50.876;4.342;2023-12-07T09:51:11;4.60;99.90
17348;DHT22;8791;50.876;4.342;2023-12-07T09:53:39;4.70;99.90
17348;DHT22;8791;50.876;4.342;2023-12-07T09:56:10;4.70;99.90
17348;DHT22;8791;50.876;4.342;2023-12-07T09:58:39;4.80;99.90
17348;DHT22;8791;50.876;4.342;2023-12-07T10:01:07;4.90;99.90
17348;DHT22;8791;50.876;4.342;2023-12-07T10:03:34;4.90;99.90
17348;DHT22;8791;50.876;4.342;2023-12-07T10:06:01;4.90;99.90
17348;DHT22;8791;50.876;4.342;2023-12-07T10:08:29;4.90;99.90
17348;DHT22;8791;50.876;4.342;2023-12-07T10:11:04;5.00;99.90
17348;DHT22;8791;50.876;4.342;2023-12-07T10:13:34;5.00;99.90
17348;DHT22;8791;50.876;4.342;2023-12-07T10:16:06;5.10;99.90
17348;DHT22;8791;50.876;4.342;2023-12-07T10:18:34;5.10;99.90
17348;DHT22;8791;50.876;4.342;2023-12-07T10:21:01;5.10;99.90
17348;DHT22;8791;50.876;4.342;2023-12-07T10:23:28;5.20;99.90
17348;DHT22;8791;50.876;4.342;2023-12-07T10:25:58;5.30;99.90
17348;DHT22;8791;50.876;4.342;2023-12-07T10:28:26;5.30;99.90
17348;DHT22;8791;50.876;4.342;2023-12-07T10:30:54;5.40;99.90
17348;DHT22;8791;50.876;4.342;2023-12-07T10:33:21;5.40;99.90
17348;DHT22;8791;50.876;4.342;2023-12-07T10:35:48;5.30;99.90
17348;DHT22;8791;50.876;4.342;2023-12-07T10:38:15;5.30;99.90
17348;DHT22;8791;50.876;4.342;2023-12-07T10:40:43;5.50;99.90
17348;DHT22;8791;50.876;4.342;2023-12-07T10:43:11;5.40;99.90
17348;DHT22;8791;50.876;4.342;2023-12-07T10:45:41;5.40;99.90
17348;DHT22;8791;50.876;4.342;2023-12-07T10:48:12;5.40;99.90
17348;DHT22;8791;50.876;4.342;2023-12-07T10:50:42;5.40;99.90
17348;DHT22;8791;50.876;4.342;2023-12-07T10:53:11;5.40;99.90
17348;DHT22;8791;50.876;4.342;2023-12-07T10:55:46;5.40;99.90
17348;DHT22;8791;50.876;4.342;2023-12-07T10:58:15;5.40;99.90
17348;DHT22;8791;50.876;4.342;2023-12-07T11:00:43;5.60;99.90
17348;DHT22;8791;50.876;4.342;2023-12-07T11:03:16;5.60;99.90
17348;DHT22;8791;50.876;4.342;2023-12-07T11:05:44;5.70;99.90
17348;DHT22;8791;50.876;4.342;2023-12-07T11:08:16;5.80;99.90
17348;DHT22;8791;50.876;4.342;2023-12-07T11:10:50;5.70;99.90
17348;DHT22;8791;50.876;4.342;2023-12-07T11:13:20;5.80;99.90
17348;DHT22;8791;50.876;4.342;2023-12-07T11:15:50;5.90;99.90
17348;DHT22;8791;50.876;4.342;2023-12-07T11:18:18;5.90;99.90
17348;DHT22;8791;50.876;4.342;2023-12-07T11:20:46;5.90;99.90
17348;DHT22;8791;50.876;4.342;2023-12-07T11:23:16;5.90;99.90
17348;DHT22;8791;50.876;4.342;2023-12-07T11:25:43;5.90;99.90
17348;DHT22;8791;50.876;4.342;2023-12-07T11:28:12;5.80;99.90
17348;DHT22;8791;50.876;4.342;2023-12-07T11:30:43;5.70;99.90
17348;DHT22;8791;50.876;4.342;2023-12-07T11:33:11;5.80;99.90
17348;DHT22;8791;50.876;4.342;2023-12-07T11:36:06;5.80;99.90
17348;DHT22;8791;50.876;4.342;2023-12-07T11:38:33;5.80;99.90
17348;DHT22;8791;50.876;4.342;2023-12-07T11:41:06;5.90;99.90
17348;DHT22;8791;50.876;4.342;2023-12-07T11:43:40;6.00;99.90
17348;DHT22;8791;50.876;4.342;2023-12-07T11:46:09;6.00;99.90
17348;DHT22;8791;50.876;4.342;2023-12-07T11:48:36;6.00;99.90
17348;DHT22;8791;50.876;4.342;2023-12-07T11:51:06;6.00;99.90
17348;DHT22;8791;50.876;4.342;2023-12-07T11:53:35;6.10;99.90
17348;DHT22;8791;50.876;4.342;2023-12-07T11:56:04;6.10;99.90
17348;DHT22;8791;50.876;4.342;2023-12-07T11:58:32;6.20;99.90
17348;DHT22;8791;50.876;4.342;2023-12-07T12:01:00;6.20;99.90
17348;DHT22;8791;50.876;4.342;2023-12-07T12:03:32;6.20;99.90
17348;DHT22;8791;50.876;4.342;2023-12-07T12:06:02;6.00;99.90
17348;DHT22;8791;50.876;4.342;2023-12-07T12:08:31;5.90;99.90
17348;DHT22;8791;50.876;4.342;2023-12-07T12:10:58;6.00;99.90
17348;DHT22;8791;50.876;4.342;2023-12-07T12:13:28;6.00;99.90
17348;DHT22;8791;50.876;4.342;2023-12-07T12:15:56;6.00;99.90
17348;DHT22;8791;50.876;4.342;2023-12-07T12:18:23;6.00;99.90
17348;DHT22;8791;50.876;4.342;2023-12-07T12:20:52;5.90;99.90
17348;DHT22;8791;50.876;4.342;2023-12-07T12:23:19;6.00;99.90
17348;DHT22;8791;50.876;4.342;2023-12-07T12:25:48;6.00;99.90
17348;DHT22;8791;50.876;4.342;2023-12-07T12:28:16;6.10;99.90
17348;DHT22;8791;50.876;4.342;2023-12-07T12:30:45;6.10;99.90
17348;DHT22;8791;50.876;4.342;2023-12-07T12:33:13;6.10;99.90
17348;DHT22;8791;50.876;4.342;2023-12-07T12:35:43;6.20;99.90
17348;DHT22;8791;50.876;4.342;2023-12-07T12:38:10;6.10;99.90
17348;DHT22;8791;50.876;4.342;2023-12-07T12:40:42;6.00;99.90
17348;DHT22;8791;50.876;4.342;2023-12-07T12:43:12;5.90;99.90
17348;DHT22;8791;50.876;4.342;2023-12-07T12:45:39;5.90;99.90
17348;DHT22;8791;50.876;4.342;2023-12-07T12:48:06;5.90;99.90
17348;DHT22;8791;50.876;4.342;2023-12-07T12:50:35;5.90;99.90
17348;DHT22;8791;50.876;4.342;2023-12-07T12:53:04;6.00;99.90
17348;DHT22;8791;50.876;4.342;2023-12-07T12:55:33;6.10;99.90
17348;DHT22;8791;50.876;4.342;2023-12-07T12:58:00;6.10;99.90
17348;DHT22;8791;50.876;4.342;2023-12-07T13:00:31;6.10;99.90
17348;DHT22;8791;50.876;4.342;2023-12-07T13:02:58;6.20;99.90
17348;DHT22;8791;50.876;4.342;2023-12-07T13:05:25;6.30;99.90
17348;DHT22;8791;50.876;4.342;2023-12-07T13:07:52;6.10;99.90
17348;DHT22;8791;50.876;4.342;2023-12-07T13:10:19;6.10;99.90
17348;DHT22;8791;50.876;4.342;2023-12-07T13:12:47;6.00;99.90
17348;DHT22;8791;50.876;4.342;2023-12-07T13:15:14;6.00;99.90
17348;DHT22;8791;50.876;4.342;2023-12-07T13:17:42;6.00;99.90
17348;DHT22;8791;50.876;4.342;2023-12-07T13:20:10;5.90;99.90
17348;DHT22;8791;50.876;4.342;2023-12-07T13:22:39;5.90;99.90
17348;DHT22;8791;50.876;4.342;2023-12-07T13:25:07;6.00;99.90
17348;DHT22;8791;50.876;4.342;2023-12-07T13:27:34;6.00;99.90
17348;DHT22;8791;50.876;4.342;2023-12-07T13:30:03;6.00;99.90
17348;DHT22;8791;50.876;4.342;2023-12-07T13:32:32;6.10;99.90
17348;DHT22;8791;50.876;4.342;2023-12-07T13:35:01;6.00;99.90
17348;DHT22;8791;50.876;4.342;2023-12-07T13:37:29;6.10;99.90
17348;DHT22;8791;50.876;4.342;2023-12-07T13:39:59;6.10;99.90
17348;DHT22;8791;50.876;4.342;2023-12-07T13:42:30;6.00;99.90
17348;DHT22;8791;50.876;4.342;2023-12-07T13:44:58;5.90;99.90
17348;DHT22;8791;50.876;4.342;2023-12-07T13:47:26;5.90;99.90
17348;DHT22;8791;50.876;4.342;2023-12-07T13:49:57;5.90;99.90
17348;DHT22;8791;50.876;4.342;2023-12-07T13:52:25;5.90;99.90
17348;DHT22;8791;50.876;4.342;2023-12-07T13:54:54;5.90;99.90
17348;DHT22;8791;50.876;4.342;2023-12-07T13:57:22;5.90;99.90
17348;DHT22;8791;50.876;4.342;2023-12-07T13:59:50;5.90;99.90
17348;DHT22;8791;50.876;4.342;2023-12-07T14:02:18;5.90;99.90
17348;DHT22;8791;50.876;4.342;2023-12-07T14:04:45;5.90;99.90
17348;DHT22;8791;50.876;4.342;2023-12-07T14:07:17;5.80;99.90
17348;DHT22;8791;50.876;4.342;2023-12-07T14:09:47;5.80;99.90
17348;DHT22;8791;50.876;4.342;2023-12-07T14:12:14;5.90;99.90
17348;DHT22;8791;50.876;4.342;2023-12-07T14:14:42;5.90;99.90
17348;DHT22;8791;50.876;4.342;2023-12-07T14:17:10;5.80;99.90
17348;DHT22;8791;50.876;4.342;2023-12-07T14:19:37;5.80;99.90
17348;DHT22;8791;50.876;4.342;2023-12-07T14:22:04;5.90;99.90
17348;DHT22;8791;50.876;4.342;2023-12-07T14:24:32;5.90;99.90
17348;DHT22;8791;50.876;4.342;2023-12-07T14:27:00;5.80;99.90
17348;DHT22;8791;50.876;4.342;2023-12-07T14:29:27;5.80;99.90
17348;DHT22;8791;50.876;4.342;2023-12-07T14:31:54;5.90;99.90
17348;DHT22;8791;50.876;4.342;2023-12-07T14:34:21;5.90;99.90
17348;DHT22;8791;50.876;4.342;2023-12-07T14:36:48;5.90;99.90
17348;DHT22;8791;50.876;4.342;2023-12-07T14:39:15;5.80;99.90
17348;DHT22;8791;50.876;4.342;2023-12-07T14:41:43;5.80;99.90
17348;DHT22;8791;50.876;4.342;2023-12-07T14:44:13;5.70;99.90
17348;DHT22;8791;50.876;4.342;2023-12-07T14:46:44;5.70;99.90
17348;DHT22;8791;50.876;4.342;2023-12-07T14:49:13;5.70;99.90
17348;DHT22;8791;50.876;4.342;2023-12-07T14:51:42;5.60;99.90
17348;DHT22;8791;50.876;4.342;2023-12-07T14:54:09;5.60;99.90
17348;DHT22;8791;50.876;4.342;2023-12-07T14:56:37;5.70;99.90
17348;DHT22;8791;50.876;4.342;2023-12-07T14:59:05;5.70;99.90
17348;DHT22;8791;50.876;4.342;2023-12-07T15:01:34;5.80;99.90
17348;DHT22;8791;50.876;4.342;2023-12-07T15:04:01;5.70;99.90
17348;DHT22;8791;50.876;4.342;2023-12-07T15:06:28;5.70;99.90
17348;DHT22;8791;50.876;4.342;2023-12-07T15:08:55;5.70;99.90
17348;DHT22;8791;50.876;4.342;2023-12-07T15:11:23;5.60;99.90
17348;DHT22;8791;50.876;4.342;2023-12-07T15:13:50;5.80;99.90
17348;DHT22;8791;50.876;4.342;2023-12-07T15:16:17;5.80;99.90
17348;DHT22;8791;50.876;4.342;2023-12-07T15:18:45;5.80;99.90
17348;DHT22;8791;50.876;4.342;2023-12-07T15:21:12;5.80;99.90
17348;DHT22;8791;50.876;4.342;2023-12-07T15:23:40;5.90;99.90
17348;DHT22;8791;50.876;4.342;2023-12-07T15:26:09;5.90;99.90
17348;DHT22;8791;50.876;4.342;2023-12-07T15:28:37;6.00;99.90
17348;DHT22;8791;50.876;4.342;2023-12-07T15:31:05;6.00;99.90
17348;DHT22;8791;50.876;4.342;2023-12-07T15:33:33;6.00;99.90
17348;DHT22;8791;50.876;4.342;2023-12-07T15:36:05;5.90;99.90
17348;DHT22;8791;50.876;4.342;2023-12-07T15:38:32;5.90;99.90
17348;DHT22;8791;50.876;4.342;2023-12-07T15:40:59;5.90;99.90
17348;DHT22;8791;50.876;4.342;2023-12-07T15:43:28;5.80;99.90
17348;DHT22;8791;50.876;4.342;2023-12-07T15:45:55;5.70;99.90
17348;DHT22;8791;50.876;4.342;2023-12-07T15:48:22;5.70;99.90
17348;DHT22;8791;50.876;4.342;2023-12-07T15:50:49;5.70;99.90
17348;DHT22;8791;50.876;4.342;2023-12-07T15:53:18;5.80;99.90
17348;DHT22;8791;50.876;4.342;2023-12-07T15:55:45;5.80;99.90
17348;DHT22;8791;50.876;4.342;2023-12-07T15:58:12;5.70;99.90
17348;DHT22;8791;50.876;4.342;2023-12-07T16:00:41;5.60;99.90
17348;DHT22;8791;50.876;4.342;2023-12-07T16:03:08;5.70;99.90
17348;DHT22;8791;50.876;4.342;2023-12-07T16:05:35;5.70;99.90